createdAt,value
2018-06-24T00:00:27.302Z,88.38
2018-06-24T00:01:27.320Z,88.48
2018-06-24T00:02:27.339Z,88.38
2018-06-24T00:03:27.360Z,88.95
2018-06-24T00:04:27.383Z,89.15
2018-06-24T00:05:27.398Z,89.24
2018-06-24T00:06:27.417Z,89.10
2018-06-24T00:07:27.438Z,89.15
2018-06-24T00:08:27.458Z,89.39
2018-06-24T00:09:27.481Z,89.48
2018-06-24T00:10:27.495Z,89.29
2018-06-24T00:11:27.515Z,89.39
2018-06-24T00:12:27.535Z,89.96
2018-06-24T00:13:27.555Z,89.96
2018-06-24T00:14:27.573Z,89.87
2018-06-24T00:15:27.604Z,89.77
2018-06-24T00:16:27.755Z,89.77
2018-06-24T00:17:27.636Z,89.77
2018-06-24T00:18:27.655Z,89.67
2018-06-24T00:19:27.674Z,89.96
2018-06-24T00:20:27.694Z,89.67
2018-06-24T00:21:27.712Z,89.96
2018-06-24T00:22:27.733Z,90.25
2018-06-24T00:23:27.754Z,89.77
2018-06-24T00:24:27.770Z,89.58
2018-06-24T00:25:27.795Z,89.77
2018-06-24T00:26:27.809Z,89.77
2018-06-24T00:27:27.829Z,89.67
2018-06-24T00:28:27.849Z,89.10
2018-06-24T00:29:27.869Z,89.67
2018-06-24T00:30:27.891Z,89.39
2018-06-24T00:31:27.908Z,89.77
2018-06-24T00:32:27.931Z,89.77
2018-06-24T00:33:27.949Z,89.48
2018-06-24T00:34:27.969Z,89.87
2018-06-24T00:35:27.986Z,89.77
2018-06-24T00:36:28.006Z,89.39
2018-06-24T00:37:28.026Z,89.58
2018-06-24T00:38:28.048Z,89.10
2018-06-24T00:39:28.063Z,89.10
2018-06-24T00:40:28.087Z,89.15
2018-06-24T00:41:28.106Z,89.20
2018-06-24T00:42:28.127Z,89.10
2018-06-24T00:43:28.143Z,89.29
2018-06-24T00:44:28.165Z,88.81
2018-06-24T00:45:28.183Z,89.67
2018-06-24T00:46:28.201Z,89.10
2018-06-24T00:47:28.224Z,89.10
2018-06-24T00:48:28.243Z,89.96
2018-06-24T00:49:28.261Z,89.29
2018-06-24T00:50:28.280Z,89.87
2018-06-24T00:51:28.302Z,89.20
2018-06-24T00:52:28.320Z,89.20
2018-06-24T00:53:28.339Z,89.77
2018-06-24T00:54:28.360Z,90.06
2018-06-24T00:55:28.380Z,90.16
2018-06-24T00:56:28.400Z,89.96
2018-06-24T00:57:28.421Z,90.16
2018-06-24T00:58:28.437Z,90.16
2018-06-24T00:59:28.456Z,89.96
2018-06-24T01:00:28.480Z,90.25
2018-06-24T01:01:28.496Z,90.73
2018-06-24T01:02:28.517Z,90.73
2018-06-24T01:03:28.536Z,90.34
2018-06-24T01:04:28.558Z,90.34
2018-06-24T01:05:28.574Z,90.63
2018-06-24T01:06:28.596Z,90.44
2018-06-24T01:07:28.613Z,90.44
2018-06-24T01:08:28.635Z,90.63
2018-06-24T01:09:28.656Z,90.63
2018-06-24T01:10:28.671Z,90.73
2018-06-24T01:11:28.691Z,90.63
2018-06-24T01:12:28.713Z,91.11
2018-06-24T01:13:28.734Z,91.35
2018-06-24T01:14:28.752Z,91.16
2018-06-24T01:15:28.769Z,91.45
2018-06-24T01:16:28.791Z,91.49
2018-06-24T01:17:28.808Z,91.83
2018-06-24T01:18:28.829Z,91.54
2018-06-24T01:19:28.850Z,92.16
2018-06-24T01:20:28.871Z,91.64
2018-06-24T01:21:28.889Z,92.21
2018-06-24T01:22:28.908Z,91.93
2018-06-24T01:23:28.929Z,92.02
2018-06-24T01:24:28.947Z,91.74
2018-06-24T01:25:28.970Z,91.83
2018-06-24T01:26:28.985Z,91.64
2018-06-24T01:27:29.010Z,91.83
2018-06-24T01:28:29.023Z,92.40
2018-06-24T01:29:29.045Z,92.45
2018-06-24T01:30:29.064Z,92.30
2018-06-24T01:31:29.083Z,93.07
2018-06-24T01:32:29.104Z,92.88
2018-06-24T01:33:29.121Z,92.59
2018-06-24T01:34:29.142Z,92.40
2018-06-24T01:35:29.159Z,92.59
2018-06-24T01:36:29.179Z,92.59
2018-06-24T01:37:29.199Z,93.07
2018-06-24T01:38:29.218Z,93.02
2018-06-24T01:39:29.238Z,92.93
2018-06-24T01:40:29.257Z,93.12
2018-06-24T01:41:29.277Z,93.55
2018-06-24T01:42:29.296Z,93.55
2018-06-24T01:43:29.315Z,93.65
2018-06-24T01:44:29.335Z,93.07
2018-06-24T01:45:29.356Z,93.26
2018-06-24T01:46:29.377Z,93.36
2018-06-24T01:47:29.448Z,93.45
2018-06-24T01:48:29.415Z,93.45
2018-06-24T01:49:29.435Z,93.16
2018-06-24T01:50:29.455Z,93.36
2018-06-24T01:51:29.474Z,93.26
2018-06-24T01:52:29.495Z,93.36
2018-06-24T01:53:29.511Z,93.45
2018-06-24T01:54:29.533Z,93.55
2018-06-24T01:55:29.552Z,94.02
2018-06-24T01:56:29.573Z,93.93
2018-06-24T01:57:29.591Z,93.65
2018-06-24T01:58:29.608Z,94.12
2018-06-24T01:59:29.628Z,94.60
2018-06-24T02:00:29.648Z,94.89
2018-06-24T02:01:29.671Z,95.27
2018-06-24T02:02:29.687Z,96.13
2018-06-24T02:03:29.706Z,96.42
2018-06-24T02:04:29.725Z,96.61
2018-06-24T02:05:29.745Z,96.61
2018-06-24T02:06:29.764Z,97.66
2018-06-24T02:07:29.787Z,97.75
2018-06-24T02:08:29.805Z,97.56
2018-06-24T02:09:29.824Z,97.56
2018-06-24T02:10:29.846Z,97.66
2018-06-24T02:11:29.861Z,97.56
2018-06-24T02:12:29.881Z,98.23
2018-06-24T02:13:29.902Z,98.61
2018-06-24T02:14:29.920Z,98.42
2018-06-24T02:15:29.939Z,98.61
2018-06-24T02:16:29.960Z,98.61
2018-06-24T02:17:29.978Z,98.71
2018-06-24T02:18:29.999Z,98.23
2018-06-24T02:19:30.017Z,98.33
2018-06-24T02:20:30.037Z,98.42
2018-06-24T02:21:30.056Z,98.52
2018-06-24T02:22:30.075Z,98.90
2018-06-24T02:23:30.099Z,98.99
2018-06-24T02:24:30.114Z,99.19
2018-06-24T02:25:30.137Z,98.99
2018-06-24T02:26:30.155Z,99.19
2018-06-24T02:27:30.172Z,98.99
2018-06-24T02:28:30.195Z,99.19
2018-06-24T02:29:30.214Z,98.80
2018-06-24T02:30:30.230Z,99.28
2018-06-24T02:31:30.252Z,99.66
2018-06-24T02:32:30.269Z,98.99
2018-06-24T02:33:30.289Z,99.38
2018-06-24T02:34:30.316Z,98.99
2018-06-24T02:35:30.326Z,99.23
2018-06-24T02:36:30.347Z,99.14
2018-06-24T02:37:30.370Z,98.99
2018-06-24T02:38:30.387Z,99.09
2018-06-24T02:39:30.405Z,98.80
2018-06-24T02:40:30.424Z,99.76
2018-06-24T02:41:30.443Z,99.28
2018-06-24T02:42:30.463Z,99.66
2018-06-24T02:43:30.482Z,99.09
2018-06-24T02:44:30.507Z,98.61
2018-06-24T02:45:30.524Z,98.33
2018-06-24T02:46:30.539Z,98.33
2018-06-24T02:47:30.558Z,98.52
2018-06-24T02:48:30.582Z,98.61
2018-06-24T02:49:30.599Z,98.52
2018-06-24T02:50:30.618Z,98.33
2018-06-24T02:51:30.635Z,99.28
2018-06-24T02:52:30.655Z,99.09
2018-06-24T02:53:30.685Z,99.09
2018-06-24T02:54:30.696Z,99.66
2018-06-24T02:55:30.715Z,98.90
2018-06-24T02:56:30.732Z,99.38
2018-06-24T02:57:30.752Z,99.09
2018-06-24T02:58:30.770Z,98.99
2018-06-24T02:59:30.790Z,98.90
2018-06-24T03:00:30.809Z,98.80
2018-06-24T03:01:30.832Z,99.48
2018-06-24T03:02:30.850Z,99.38
2018-06-24T03:03:30.867Z,99.48
2018-06-24T03:04:30.887Z,99.19
2018-06-24T03:05:30.909Z,98.99
2018-06-24T03:06:30.925Z,98.90
2018-06-24T03:07:30.948Z,99.38
2018-06-24T03:08:30.964Z,99.57
2018-06-24T03:09:30.987Z,99.66
2018-06-24T03:10:31.004Z,99.48
2018-06-24T03:11:31.025Z,99.48
2018-06-24T03:12:31.045Z,99.48
2018-06-24T03:13:31.064Z,98.90
2018-06-24T03:14:31.085Z,98.99
2018-06-24T03:15:31.100Z,99.09
2018-06-24T03:16:31.119Z,99.09
2018-06-24T03:17:31.138Z,98.90
2018-06-24T03:18:31.160Z,98.71
2018-06-24T03:19:31.179Z,98.52
2018-06-24T03:20:31.199Z,98.33
2018-06-24T03:21:31.224Z,98.80
2018-06-24T03:22:31.239Z,98.52
2018-06-24T03:23:31.254Z,98.33
2018-06-24T03:24:31.275Z,98.80
2018-06-24T03:25:31.296Z,98.61
2018-06-24T03:26:31.312Z,98.13
2018-06-24T03:27:31.334Z,97.47
2018-06-24T03:28:31.357Z,97.75
2018-06-24T03:29:31.370Z,97.56
2018-06-24T03:30:31.394Z,97.85
2018-06-24T03:31:31.412Z,97.47
2018-06-24T03:32:31.433Z,97.56
2018-06-24T03:33:31.450Z,96.51
2018-06-24T03:34:31.469Z,96.56
2018-06-24T03:35:31.498Z,96.66
2018-06-24T03:36:31.509Z,96.94
2018-06-24T03:37:31.529Z,96.32
2018-06-24T03:38:31.544Z,96.13
2018-06-24T03:39:31.566Z,96.42
2018-06-24T03:40:31.586Z,96.70
2018-06-24T03:41:31.606Z,96.66
2018-06-24T03:42:31.627Z,96.89
2018-06-24T03:43:31.645Z,96.75
2018-06-24T03:44:31.661Z,96.89
2018-06-24T03:45:31.681Z,97.37
2018-06-24T03:46:31.699Z,97.66
2018-06-24T03:47:31.719Z,97.47
2018-06-24T03:48:31.738Z,97.28
2018-06-24T03:49:31.758Z,97.23
2018-06-24T03:50:31.777Z,97.04
2018-06-24T03:51:31.797Z,97.13
2018-06-24T03:52:31.816Z,97.23
2018-06-24T03:53:31.838Z,96.99
2018-06-24T03:54:31.855Z,96.75
2018-06-24T03:55:31.875Z,96.80
2018-06-24T03:56:31.898Z,96.99
2018-06-24T03:57:31.914Z,96.66
2018-06-24T03:58:31.937Z,96.80
2018-06-24T03:59:31.952Z,96.75
2018-06-24T04:00:31.972Z,96.42
2018-06-24T04:01:31.995Z,96.70
2018-06-24T04:02:32.013Z,96.89
2018-06-24T04:03:32.032Z,97.08
2018-06-24T04:04:32.057Z,97.08
2018-06-24T04:05:32.074Z,97.18
2018-06-24T04:06:32.094Z,96.99
2018-06-24T04:07:32.109Z,96.99
2018-06-24T04:08:32.128Z,96.94
2018-06-24T04:09:32.153Z,97.08
2018-06-24T04:10:32.170Z,97.28
2018-06-24T04:11:32.186Z,96.75
2018-06-24T04:12:32.208Z,96.47
2018-06-24T04:13:32.228Z,95.51
2018-06-24T04:14:32.247Z,96.03
2018-06-24T04:15:32.267Z,96.51
2018-06-24T04:16:32.287Z,96.70
2018-06-24T04:17:32.305Z,96.80
2018-06-24T04:18:32.323Z,96.66
2018-06-24T04:19:32.341Z,96.03
2018-06-24T04:20:32.362Z,95.94
2018-06-24T04:21:32.384Z,95.65
2018-06-24T04:22:32.404Z,95.98
2018-06-24T04:23:32.423Z,95.75
2018-06-24T04:24:32.443Z,95.84
2018-06-24T04:25:32.465Z,96.08
2018-06-24T04:26:32.479Z,95.70
2018-06-24T04:27:32.513Z,95.98
2018-06-24T04:28:32.520Z,95.79
2018-06-24T04:29:32.538Z,95.98
2018-06-24T04:30:32.560Z,95.70
2018-06-24T04:31:32.577Z,95.79
2018-06-24T04:32:32.597Z,95.61
2018-06-24T04:33:32.619Z,95.79
2018-06-24T04:34:32.639Z,95.98
2018-06-24T04:35:32.655Z,95.89
2018-06-24T04:36:32.682Z,95.89
2018-06-24T04:37:32.698Z,95.98
2018-06-24T04:38:32.713Z,96.47
2018-06-24T04:39:32.737Z,96.56
2018-06-24T04:40:32.756Z,96.47
2018-06-24T04:41:32.776Z,96.66
2018-06-24T04:42:32.794Z,97.04
2018-06-24T04:43:32.814Z,96.66
2018-06-24T04:44:32.835Z,96.56
2018-06-24T04:45:32.851Z,96.56
2018-06-24T04:46:32.874Z,96.66
2018-06-24T04:47:32.891Z,96.27
2018-06-24T04:48:32.912Z,95.79
2018-06-24T04:49:32.934Z,96.08
2018-06-24T04:50:32.955Z,95.89
2018-06-24T04:51:33.015Z,95.79
2018-06-24T04:52:32.989Z,96.08
2018-06-24T04:53:33.012Z,95.22
2018-06-24T04:54:33.028Z,95.61
2018-06-24T04:55:33.051Z,95.89
2018-06-24T04:56:33.075Z,95.51
2018-06-24T04:57:33.090Z,95.51
2018-06-24T04:58:33.109Z,95.61
2018-06-24T04:59:33.129Z,96.08
2018-06-24T05:00:33.146Z,95.79
2018-06-24T05:01:33.168Z,94.74
2018-06-24T05:02:33.184Z,95.70
2018-06-24T05:03:33.212Z,95.22
2018-06-24T05:04:33.226Z,95.03
2018-06-24T05:05:33.246Z,95.32
2018-06-24T05:06:33.357Z,94.93
2018-06-24T05:07:33.285Z,94.74
2018-06-24T05:08:33.303Z,94.84
2018-06-24T05:09:33.323Z,94.41
2018-06-24T05:10:33.345Z,94.31
2018-06-24T05:11:33.362Z,94.41
2018-06-24T05:12:33.383Z,93.69
2018-06-24T05:13:33.403Z,94.17
2018-06-24T05:14:33.422Z,94.31
2018-06-24T05:15:33.441Z,94.79
2018-06-24T05:16:33.461Z,94.02
2018-06-24T05:17:33.483Z,94.21
2018-06-24T05:18:33.506Z,94.50
2018-06-24T05:19:33.525Z,94.60
2018-06-24T05:20:33.542Z,94.70
2018-06-24T05:21:33.562Z,95.41
2018-06-24T05:22:33.578Z,95.61
2018-06-24T05:23:33.598Z,95.70
2018-06-24T05:24:33.620Z,96.18
2018-06-24T05:25:33.641Z,95.89
2018-06-24T05:26:33.660Z,95.61
2018-06-24T05:27:33.696Z,95.89
2018-06-24T05:28:33.699Z,95.84
2018-06-24T05:29:33.719Z,95.61
2018-06-24T05:30:33.737Z,95.79
2018-06-24T05:31:33.758Z,95.79
2018-06-24T05:32:33.782Z,96.27
2018-06-24T05:33:33.798Z,96.18
2018-06-24T05:34:33.815Z,95.75
2018-06-24T05:35:33.834Z,95.94
2018-06-24T05:36:33.855Z,95.94
2018-06-24T05:37:33.875Z,95.36
2018-06-24T05:38:33.896Z,94.98
2018-06-24T05:39:33.914Z,94.79
2018-06-24T05:40:33.935Z,94.31
2018-06-24T05:41:33.956Z,94.12
2018-06-24T05:42:33.973Z,94.12
2018-06-24T05:43:33.993Z,94.21
2018-06-24T05:44:34.014Z,94.12
2018-06-24T05:45:34.037Z,94.21
2018-06-24T05:46:34.055Z,94.50
2018-06-24T05:47:34.073Z,93.50
2018-06-24T05:48:34.096Z,93.69
2018-06-24T05:49:34.112Z,93.74
2018-06-24T05:50:34.136Z,93.59
2018-06-24T05:51:34.152Z,94.65
2018-06-24T05:52:34.175Z,93.74
2018-06-24T05:53:34.198Z,93.35
2018-06-24T05:54:34.216Z,94.41
2018-06-24T05:55:34.234Z,94.70
2018-06-24T05:56:34.253Z,94.70
2018-06-24T05:57:34.272Z,94.41
2018-06-24T05:58:34.293Z,93.55
2018-06-24T05:59:34.314Z,93.16
2018-06-24T06:00:34.332Z,93.35
2018-06-24T06:01:34.353Z,94.50
2018-06-24T06:02:34.372Z,94.31
2018-06-24T06:03:34.394Z,94.79
2018-06-24T06:04:34.414Z,94.89
2018-06-24T06:05:34.434Z,94.98
2018-06-24T06:06:34.455Z,94.89
2018-06-24T06:07:34.472Z,94.12
2018-06-24T06:08:34.492Z,93.84
2018-06-24T06:09:34.515Z,94.21
2018-06-24T06:10:34.532Z,94.21
2018-06-24T06:11:34.555Z,94.31
2018-06-24T06:12:34.572Z,93.55
2018-06-24T06:13:34.594Z,93.84
2018-06-24T06:14:34.637Z,93.84
2018-06-24T06:15:34.634Z,93.74
2018-06-24T06:16:34.655Z,93.59
2018-06-24T06:17:34.673Z,93.69
2018-06-24T06:18:34.694Z,93.88
2018-06-24T06:19:34.712Z,94.41
2018-06-24T06:20:34.734Z,93.69
2018-06-24T06:21:34.753Z,93.64
2018-06-24T06:22:34.778Z,93.93
2018-06-24T06:23:34.792Z,93.55
2018-06-24T06:24:34.816Z,93.45
2018-06-24T06:25:34.836Z,93.74
2018-06-24T06:26:34.854Z,94.41
2018-06-24T06:27:34.876Z,93.74
2018-06-24T06:28:34.899Z,93.84
2018-06-24T06:29:34.915Z,93.64
2018-06-24T06:30:34.932Z,93.74
2018-06-24T06:31:34.952Z,93.55
2018-06-24T06:32:34.975Z,93.07
2018-06-24T06:33:34.993Z,93.16
2018-06-24T06:34:35.015Z,93.55
2018-06-24T06:35:35.035Z,94.21
2018-06-24T06:36:35.055Z,93.35
2018-06-24T06:37:35.073Z,93.64
2018-06-24T06:38:35.093Z,93.45
2018-06-24T06:39:35.113Z,93.07
2018-06-24T06:40:35.135Z,93.07
2018-06-24T06:41:35.159Z,93.26
2018-06-24T06:42:35.172Z,92.97
2018-06-24T06:43:35.192Z,93.07
2018-06-24T06:44:35.213Z,92.69
2018-06-24T06:45:35.400Z,92.59
2018-06-24T06:46:35.255Z,92.97
2018-06-24T06:47:35.272Z,93.07
2018-06-24T06:48:35.295Z,92.21
2018-06-24T06:49:35.314Z,92.25
2018-06-24T06:50:35.334Z,92.54
2018-06-24T06:51:35.354Z,92.25
2018-06-24T06:52:35.373Z,92.54
2018-06-24T06:53:35.394Z,92.25
2018-06-24T06:54:35.412Z,91.97
2018-06-24T06:55:35.434Z,91.58
2018-06-24T06:56:35.453Z,91.77
2018-06-24T06:57:35.475Z,91.49
2018-06-24T06:58:35.495Z,90.63
2018-06-24T06:59:35.514Z,90.63
2018-06-24T07:00:35.533Z,90.77
2018-06-24T07:01:35.554Z,90.96
2018-06-24T07:02:35.573Z,90.63
2018-06-24T07:03:35.597Z,91.49
2018-06-24T07:04:35.614Z,90.72
2018-06-24T07:05:35.637Z,90.91
2018-06-24T07:06:35.653Z,90.91
2018-06-24T07:07:35.675Z,90.72
2018-06-24T07:08:35.694Z,90.67
2018-06-24T07:09:35.714Z,90.48
2018-06-24T07:10:35.735Z,89.81
2018-06-24T07:11:35.754Z,89.62
2018-06-24T07:12:35.774Z,89.52
2018-06-24T07:13:35.795Z,89.76
2018-06-24T07:14:35.866Z,89.86
2018-06-24T07:15:35.835Z,90.15
2018-06-24T07:16:35.859Z,90.34
2018-06-24T07:17:35.877Z,90.24
2018-06-24T07:18:35.898Z,89.67
2018-06-24T07:19:35.915Z,89.38
2018-06-24T07:20:35.937Z,89.58
2018-06-24T07:21:35.960Z,89.38
2018-06-24T07:22:35.976Z,89.86
2018-06-24T07:23:35.996Z,90.15
2018-06-24T07:24:36.020Z,89.62
2018-06-24T07:25:36.038Z,89.23
2018-06-24T07:26:36.061Z,89.29
2018-06-24T07:27:36.088Z,89.58
2018-06-24T07:28:36.098Z,89.48
2018-06-24T07:29:36.122Z,89.33
2018-06-24T07:30:36.140Z,88.66
2018-06-24T07:31:36.162Z,88.28
2018-06-24T07:32:36.185Z,87.80
2018-06-24T07:33:36.348Z,87.80
2018-06-24T07:34:36.223Z,87.03
2018-06-24T07:35:36.241Z,87.51
2018-06-24T07:36:36.264Z,87.41
2018-06-24T07:37:36.285Z,87.55
2018-06-24T07:38:36.417Z,87.55
2018-06-24T07:39:36.324Z,86.88
2018-06-24T07:40:36.344Z,87.74
2018-06-24T07:41:36.365Z,87.74
2018-06-24T07:42:36.386Z,87.37
2018-06-24T07:43:36.407Z,86.88
2018-06-24T07:44:36.426Z,86.98
2018-06-24T07:45:36.444Z,86.50
2018-06-24T07:46:36.465Z,86.41
2018-06-24T07:47:36.484Z,86.41
2018-06-24T07:48:36.507Z,86.12
2018-06-24T07:49:36.526Z,86.50
2018-06-24T07:50:36.549Z,85.54
2018-06-24T07:51:36.566Z,85.64
2018-06-24T07:52:36.591Z,84.97
2018-06-24T07:53:36.611Z,85.21
2018-06-24T07:54:36.628Z,85.39
2018-06-24T07:55:36.651Z,85.25
2018-06-24T07:56:36.673Z,85.39
2018-06-24T07:57:36.694Z,85.49
2018-06-24T07:58:36.711Z,85.97
2018-06-24T07:59:36.734Z,85.16
2018-06-24T08:00:36.759Z,85.45
2018-06-24T08:01:36.780Z,85.54
2018-06-24T08:02:36.793Z,86.21
2018-06-24T08:03:36.816Z,85.64
2018-06-24T08:04:36.839Z,85.64
2018-06-24T08:05:36.858Z,85.93
2018-06-24T08:06:36.877Z,86.02
2018-06-24T08:07:36.899Z,86.21
2018-06-24T08:08:36.920Z,86.21
2018-06-24T08:09:36.940Z,86.31
2018-06-24T08:10:36.963Z,86.50
2018-06-24T08:11:36.984Z,86.50
2018-06-24T08:12:37.001Z,86.21
2018-06-24T08:13:37.023Z,85.54
2018-06-24T08:14:37.045Z,84.88
2018-06-24T08:15:37.070Z,84.20
2018-06-24T08:16:37.092Z,83.92
2018-06-24T08:17:37.109Z,83.92
2018-06-24T08:18:37.129Z,84.58
2018-06-24T08:19:37.149Z,85.06
2018-06-24T08:20:37.171Z,84.34
2018-06-24T08:21:37.191Z,83.82
2018-06-24T08:22:37.215Z,84.97
2018-06-24T08:23:37.231Z,84.72
2018-06-24T08:24:37.253Z,84.20
2018-06-24T08:25:37.272Z,83.92
2018-06-24T08:26:37.292Z,84.49
2018-06-24T08:27:37.315Z,84.11
2018-06-24T08:28:37.335Z,84.91
2018-06-24T08:29:37.359Z,84.91
2018-06-24T08:30:37.379Z,84.88
2018-06-24T08:31:37.438Z,85.01
2018-06-24T08:32:37.420Z,84.53
2018-06-24T08:33:37.439Z,84.11
2018-06-24T08:34:37.461Z,83.67
2018-06-24T08:35:37.480Z,83.48
2018-06-24T08:36:37.501Z,83.19
2018-06-24T08:37:37.524Z,83.38
2018-06-24T08:38:37.544Z,82.76
2018-06-24T08:39:37.563Z,83.00
2018-06-24T08:40:37.584Z,83.19
2018-06-24T08:41:37.609Z,82.48
2018-06-24T08:42:37.628Z,82.67
2018-06-24T08:43:37.650Z,83.58
2018-06-24T08:44:37.667Z,83.44
2018-06-24T08:45:37.689Z,83.25
2018-06-24T08:46:37.709Z,83.05
2018-06-24T08:47:37.731Z,82.76
2018-06-24T08:48:37.753Z,82.14
2018-06-24T08:49:37.775Z,83.00
2018-06-24T08:50:37.796Z,83.72
2018-06-24T08:51:37.841Z,83.92
2018-06-24T08:52:37.878Z,83.95
2018-06-24T08:53:37.856Z,83.19
2018-06-24T08:54:37.878Z,82.14
2018-06-24T08:55:37.897Z,81.56
2018-06-24T08:56:37.919Z,80.55
2018-06-24T08:57:37.939Z,80.26
2018-06-24T08:58:37.963Z,79.97
2018-06-24T08:59:37.981Z,79.78
2018-06-24T09:00:38.067Z,80.07
2018-06-24T09:01:38.026Z,79.97
2018-06-24T09:02:38.047Z,80.07
2018-06-24T09:03:38.065Z,80.01
2018-06-24T09:04:38.091Z,79.34
2018-06-24T09:05:38.112Z,78.15
2018-06-24T09:06:38.128Z,78.63
2018-06-24T09:07:38.152Z,79.11
2018-06-24T09:08:38.172Z,78.82
2018-06-24T09:09:38.195Z,78.82
2018-06-24T09:10:38.213Z,78.82
2018-06-24T09:11:38.238Z,79.78
2018-06-24T09:12:38.256Z,79.68
2018-06-24T09:13:38.357Z,79.21
2018-06-24T09:14:38.300Z,79.30
2018-06-24T09:15:38.399Z,79.78
2018-06-24T09:16:38.342Z,78.86
2018-06-24T09:17:38.360Z,79.34
2018-06-24T09:18:38.381Z,79.24
2018-06-24T09:19:38.405Z,78.63
2018-06-24T09:20:38.427Z,78.44
2018-06-24T09:21:38.449Z,78.57
2018-06-24T09:22:38.466Z,78.57
2018-06-24T09:23:38.487Z,79.05
2018-06-24T09:24:38.512Z,78.57
2018-06-24T09:25:38.534Z,78.38
2018-06-24T09:26:38.554Z,77.90
2018-06-24T09:27:38.580Z,78.25
2018-06-24T09:28:38.593Z,78.15
2018-06-24T09:29:38.617Z,78.72
2018-06-24T09:30:38.640Z,79.55
2018-06-24T09:31:38.659Z,79.55
2018-06-24T09:32:38.678Z,79.74
2018-06-24T09:33:38.701Z,80.35
2018-06-24T09:34:38.723Z,80.32
2018-06-24T09:35:38.741Z,80.12
2018-06-24T09:36:38.766Z,79.83
2018-06-24T09:37:38.787Z,80.22
2018-06-24T09:38:38.804Z,80.60
2018-06-24T09:39:38.828Z,80.22
2018-06-24T09:40:38.850Z,79.45
2018-06-24T09:41:38.877Z,79.49
2018-06-24T09:42:38.894Z,78.92
2018-06-24T09:43:38.914Z,78.53
2018-06-24T09:44:38.933Z,79.26
2018-06-24T09:45:38.955Z,78.97
2018-06-24T09:46:38.977Z,79.55
2018-06-24T09:47:38.997Z,80.03
2018-06-24T09:48:39.020Z,80.32
2018-06-24T09:49:39.038Z,80.32
2018-06-24T09:50:39.062Z,80.60
2018-06-24T09:51:39.083Z,80.32
2018-06-24T09:52:39.100Z,79.93
2018-06-24T09:53:39.122Z,79.21
2018-06-24T09:54:39.144Z,78.53
2018-06-24T09:55:39.167Z,78.34
2018-06-24T09:56:39.189Z,78.44
2018-06-24T09:57:39.210Z,78.25
2018-06-24T09:58:39.231Z,78.15
2018-06-24T09:59:39.248Z,78.15
2018-06-24T10:00:39.278Z,78.15
2018-06-24T10:01:39.291Z,78.15
2018-06-24T10:02:39.314Z,78.82
2018-06-24T10:03:39.332Z,79.39
2018-06-24T10:04:39.357Z,80.35
2018-06-24T10:05:39.377Z,80.55
2018-06-24T10:06:39.399Z,80.64
2018-06-24T10:07:39.420Z,81.51
2018-06-24T10:08:39.444Z,80.79
2018-06-24T10:09:39.462Z,80.51
2018-06-24T10:10:39.482Z,80.79
2018-06-24T10:11:39.505Z,80.32
2018-06-24T10:12:39.527Z,80.32
2018-06-24T10:13:39.545Z,80.12
2018-06-24T10:14:39.565Z,80.51
2018-06-24T10:15:39.702Z,80.45
2018-06-24T10:16:39.609Z,81.08
2018-06-24T10:17:39.633Z,81.52
2018-06-24T10:18:39.653Z,82.14
2018-06-24T10:19:39.674Z,82.14
2018-06-24T10:20:39.692Z,82.04
2018-06-24T10:21:39.715Z,81.75
2018-06-24T10:22:39.734Z,81.46
2018-06-24T10:23:39.756Z,82.14
2018-06-24T10:24:39.781Z,81.12
2018-06-24T10:25:39.800Z,80.45
2018-06-24T10:26:39.822Z,80.55
2018-06-24T10:27:39.842Z,80.45
2018-06-24T10:28:39.860Z,80.74
2018-06-24T10:29:39.886Z,80.45
2018-06-24T10:30:39.906Z,80.35
2018-06-24T10:31:39.927Z,80.83
2018-06-24T10:32:39.948Z,80.97
2018-06-24T10:33:39.968Z,80.40
2018-06-24T10:34:39.990Z,80.55
2018-06-24T10:35:40.009Z,81.22
2018-06-24T10:36:40.031Z,82.56
2018-06-24T10:37:40.054Z,83.52
2018-06-24T10:38:40.073Z,84.00
2018-06-24T10:39:40.095Z,85.05
2018-06-24T10:40:40.115Z,84.95
2018-06-24T10:41:40.136Z,84.58
2018-06-24T10:42:40.157Z,86.97
2018-06-24T10:43:40.179Z,88.02
2018-06-24T10:44:40.204Z,87.45
2018-06-24T10:45:40.219Z,88.02
2018-06-24T10:46:40.241Z,90.33
2018-06-24T10:47:40.263Z,88.22
2018-06-24T10:48:40.286Z,88.65
2018-06-24T10:49:40.306Z,89.51
2018-06-24T10:50:40.327Z,92.01
2018-06-24T10:51:40.347Z,92.20
2018-06-24T10:52:40.367Z,93.63
2018-06-24T10:53:40.388Z,93.54
2018-06-24T10:54:40.409Z,94.07
2018-06-24T10:55:40.430Z,93.11
2018-06-24T10:56:40.453Z,94.12
2018-06-24T10:57:40.476Z,96.22
2018-06-24T10:58:40.499Z,97.61
2018-06-24T10:59:40.517Z,96.27
2018-06-24T11:00:40.538Z,97.85
2018-06-24T11:01:40.559Z,95.65
2018-06-24T11:02:40.580Z,95.26
2018-06-24T11:03:40.600Z,94.21
2018-06-24T11:04:40.620Z,93.63
2018-06-24T11:05:40.643Z,93.35
2018-06-24T11:06:40.663Z,93.21
2018-06-24T11:07:40.681Z,93.11
2018-06-24T11:08:40.707Z,92.72
2018-06-24T11:09:40.753Z,92.72
2018-06-24T11:10:40.748Z,91.67
2018-06-24T11:11:40.766Z,91.67
2018-06-24T11:12:40.791Z,92.72
2018-06-24T11:13:40.811Z,90.14
2018-06-24T11:14:40.832Z,90.95
2018-06-24T11:15:40.853Z,91.00
2018-06-24T11:16:40.877Z,91.09
2018-06-24T11:17:40.893Z,92.54
2018-06-24T11:18:40.918Z,93.21
2018-06-24T11:19:40.937Z,90.90
2018-06-24T11:20:40.957Z,90.61
2018-06-24T11:21:40.981Z,90.61
2018-06-24T11:22:41.000Z,88.79
2018-06-24T11:23:41.023Z,89.18
2018-06-24T11:24:41.042Z,88.51
2018-06-24T11:25:41.064Z,87.74
2018-06-24T11:26:41.084Z,87.30
2018-06-24T11:27:41.108Z,87.78
2018-06-24T11:28:41.132Z,87.49
2018-06-24T11:29:41.154Z,86.63
2018-06-24T11:30:41.172Z,86.25
2018-06-24T11:31:41.194Z,85.38
2018-06-24T11:32:41.217Z,83.47
2018-06-24T11:33:41.237Z,84.04
2018-06-24T11:34:41.254Z,84.23
2018-06-24T11:35:41.276Z,84.14
2018-06-24T11:36:41.301Z,85.34
2018-06-24T11:37:41.319Z,86.34
2018-06-24T11:38:41.342Z,86.15
2018-06-24T11:39:41.362Z,85.48
2018-06-24T11:40:41.385Z,85.67
2018-06-24T11:41:41.410Z,85.10
2018-06-24T11:42:41.427Z,85.96
2018-06-24T11:43:41.450Z,85.67
2018-06-24T11:44:41.470Z,85.58
2018-06-24T11:45:41.492Z,84.71
2018-06-24T11:46:41.515Z,83.56
2018-06-24T11:47:41.534Z,82.03
2018-06-24T11:48:41.559Z,82.70
2018-06-24T11:49:41.577Z,83.04
2018-06-24T11:50:41.599Z,83.08
2018-06-24T11:51:41.622Z,83.23
2018-06-24T11:52:41.644Z,82.89
2018-06-24T11:53:41.663Z,83.52
2018-06-24T11:54:41.687Z,83.04
2018-06-24T11:55:41.704Z,83.61
2018-06-24T11:56:41.727Z,84.00
2018-06-24T11:57:41.751Z,84.09
2018-06-24T11:58:41.772Z,84.86
2018-06-24T11:59:41.790Z,83.65
2018-06-24T12:00:41.817Z,83.37
2018-06-24T12:01:41.836Z,83.37
2018-06-24T12:02:41.876Z,83.85
2018-06-24T12:03:41.877Z,82.98
2018-06-24T12:04:41.901Z,82.70
2018-06-24T12:05:41.923Z,82.31
2018-06-24T12:06:41.942Z,83.08
2018-06-24T12:07:41.963Z,82.98
2018-06-24T12:08:41.989Z,83.27
2018-06-24T12:09:42.032Z,83.37
2018-06-24T12:10:42.063Z,83.18
2018-06-24T12:11:42.047Z,83.42
2018-06-24T12:12:42.069Z,83.81
2018-06-24T12:13:42.092Z,83.52
2018-06-24T12:14:42.111Z,84.28
2018-06-24T12:15:42.132Z,84.05
2018-06-24T12:16:42.162Z,84.58
2018-06-24T12:17:42.176Z,85.30
2018-06-24T12:18:42.199Z,84.95
2018-06-24T12:19:42.220Z,85.05
2018-06-24T12:20:42.241Z,84.86
2018-06-24T12:21:42.266Z,84.48
2018-06-24T12:22:42.285Z,83.23
2018-06-24T12:23:42.304Z,83.81
2018-06-24T12:24:42.324Z,83.42
2018-06-24T12:25:42.354Z,83.71
2018-06-24T12:26:42.365Z,83.71
2018-06-24T12:27:42.389Z,83.81
2018-06-24T12:28:42.408Z,83.37
2018-06-24T12:29:42.431Z,83.75
2018-06-24T12:30:42.548Z,83.65
2018-06-24T12:31:42.475Z,82.89
2018-06-24T12:32:42.499Z,82.89
2018-06-24T12:33:42.513Z,82.98
2018-06-24T12:34:42.536Z,82.12
2018-06-24T12:35:42.560Z,82.41
2018-06-24T12:36:42.580Z,82.12
2018-06-24T12:37:42.604Z,82.31
2018-06-24T12:38:42.618Z,82.31
2018-06-24T12:39:42.643Z,82.12
2018-06-24T12:40:42.661Z,82.60
2018-06-24T12:41:42.685Z,83.08
2018-06-24T12:42:42.706Z,83.27
2018-06-24T12:43:42.725Z,83.42
2018-06-24T12:44:42.747Z,83.56
2018-06-24T12:45:42.770Z,83.47
2018-06-24T12:46:42.791Z,83.27
2018-06-24T12:47:42.810Z,84.00
2018-06-24T12:48:42.834Z,83.14
2018-06-24T12:49:42.852Z,83.75
2018-06-24T12:50:42.879Z,83.75
2018-06-24T12:51:42.898Z,83.08
2018-06-24T12:52:42.970Z,82.79